.
WxDataArchive / Data Records for 2007-02-18
2007-02-17 February 2007 2007-02-19

Data Records for Sunday, 18 February 2007

Time	Temp	Chill	HIndex	Humid	Dewpt	 Wind 	HiWind	WindDir	Rain 	Barom 
-----	----	-----	------	-----	-----	------	------	-------	-----	----- 
00:00	22.4	22.4	22.4	82	17.8	0	2	248	0.00	29.921 
00:05	22.4	22.4	22.4	82	17.8	1	2	248	0.00	29.922 
00:10	22.4	22.4	22.4	82	17.8	1	2	248	0.00	29.924 
00:15	22.5	22.5	22.5	82	17.9	1	3	225	0.00	29.921 
00:20	22.5	22.5	22.5	82	17.9	1	3	270	0.00	29.922 
00:25	22.5	22.5	22.5	82	17.9	1	3	248	0.00	29.926 
00:30	22.5	22.5	22.5	82	17.9	1	3	248	0.00	29.923 
00:35	22.5	22.5	22.5	82	17.9	1	4	248	0.00	29.928 
00:40	22.5	22.5	22.5	83	18.1	1	5	248	0.00	29.927 
00:45	22.4	22.4	22.4	83	18.0	1	3	248	0.00	29.930 
00:50	22.4	22.4	22.4	83	18.0	1	3	248	0.00	29.932 
00:55	22.2	22.2	22.2	84	18.1	1	5	248	0.00	29.929 
01:00	22.2	22.2	22.2	84	18.1	2	4	248	0.00	29.929 
01:05	22.2	22.2	22.2	84	18.1	1	3	225	0.00	29.929 
01:10	22.2	22.2	22.2	84	18.1	2	5	270	0.00	29.929 
01:15	22.1	22.1	22.1	84	18.0	1	3	248	0.00	29.926 
01:20	22.1	22.1	22.1	84	18.0	1	6	248	0.00	29.926 
01:25	21.9	21.9	21.9	84	17.8	1	4	248	0.00	29.925 
01:30	21.8	21.8	21.8	83	17.4	1	3	248	0.00	29.924 
01:35	21.6	21.6	21.6	82	17.0	2	5	248	0.00	29.926 
01:40	21.6	21.6	21.6	81	16.7	2	5	270	0.00	29.927 
01:45	21.6	21.6	21.6	81	16.7	2	7	248	0.00	29.928 
01:50	21.4	21.4	21.4	80	16.2	2	5	248	0.00	29.927 
01:55	21.3	21.3	21.3	80	16.1	2	5	248	0.00	29.928 
02:00	21.3	21.3	21.3	80	16.1	2	6	270	0.00	29.930 
02:05	21.1	21.1	21.1	79	15.6	2	5	270	0.00	29.929 
02:10	20.8	20.8	20.8	79	15.3	2	6	270	0.00	29.928 
02:15	20.6	20.6	20.6	79	15.1	2	4	270	0.00	29.930 
02:20	20.5	20.5	20.5	80	15.3	2	6	270	0.00	29.930 
02:25	20.5	20.5	20.5	80	15.3	2	5	248	0.00	29.929 
02:30	20.6	20.6	20.6	80	15.4	2	7	248	0.00	29.929 
02:35	20.6	20.6	20.6	80	15.4	3	6	270	0.00	29.928 
02:40	20.5	20.5	20.5	80	15.3	2	7	248	0.00	29.929 
02:45	20.2	20.2	20.2	79	14.8	3	5	248	0.00	29.930 
02:50	19.9	19.9	19.9	79	14.5	3	7	270	0.00	29.930 
02:55	19.5	19.5	19.5	78	13.8	3	11	270	0.00	29.928 
03:00	19.4	19.4	19.4	77	13.4	3	11	270	0.00	29.928 
03:05	19.2	19.2	19.2	77	13.2	3	10	270	0.00	29.928 
03:10	19.1	19.1	19.1	76	12.8	3	7	270	0.00	29.928 
03:15	18.8	18.8	18.8	76	12.5	3	6	270	0.00	29.925 
03:20	18.3	18.3	18.3	76	12.0	2	6	270	0.00	29.929 
03:25	18.0	18.0	18.0	75	11.4	3	5	270	0.00	29.927 
03:30	17.8	17.8	17.8	75	11.2	3	10	270	0.00	29.925 
03:35	17.5	17.5	17.5	75	11.0	2	7	270	0.00	29.925 
03:40	17.2	17.2	17.2	75	10.7	2	7	270	0.00	29.927 
03:45	16.9	16.9	16.9	76	10.7	2	4	248	0.00	29.932 
03:50	16.5	16.5	16.5	76	10.3	2	6	270	0.00	29.935 
03:55	16.2	16.2	16.2	76	10.0	2	4	270	0.00	29.936 
04:00	16.1	16.1	16.1	76	9.9	2	7	270	0.00	29.937 
04:05	15.9	15.9	15.9	77	10.0	2	7	270	0.00	29.938 
04:10	15.6	15.6	15.6	77	9.7	2	5	248	0.00	29.937 
04:15	15.4	15.4	15.4	77	9.5	2	4	248	0.00	29.935 
04:20	15.1	15.1	15.1	77	9.2	1	5	248	0.00	29.934 
04:25	14.9	14.9	14.9	77	9.0	2	5	248	0.00	29.934 
04:30	14.8	14.8	14.8	78	9.2	2	4	270	0.00	29.938 
04:35	14.6	14.6	14.6	78	9.0	2	4	270	0.00	29.939 
04:40	14.6	14.6	14.6	78	9.0	2	6	248	0.00	29.941 
04:45	14.4	14.4	14.4	78	8.8	1	3	270	0.00	29.945 
04:50	14.3	14.3	14.3	78	8.7	1	3	248	0.00	29.945 
04:55	14.1	14.1	14.1	79	8.8	1	4	248	0.00	29.946 
05:00	14.0	14.0	14.0	79	8.7	1	4	292	0.00	29.949 
05:05	13.8	13.8	13.8	79	8.5	1	3	248	0.00	29.950 
05:10	13.6	13.6	13.6	79	8.3	1	3	248	0.00	29.952 
05:15	13.8	13.8	13.8	80	8.8	1	3	248	0.00	29.957 
05:20	13.8	13.8	13.8	80	8.8	1	2	248	0.00	29.959 
05:25	13.8	13.8	13.8	80	8.8	1	4	248	0.00	29.960 
05:30	14.0	14.0	14.0	80	9.0	2	3	270	0.00	29.960 
05:35	14.0	14.0	14.0	80	9.0	2	3	270	0.00	29.960 
05:40	14.0	14.0	14.0	80	9.0	2	3	270	0.00	29.960 
05:45	14.0	14.0	14.0	79	8.7	2	4	248	0.00	29.959 
05:50	14.0	14.0	14.0	79	8.7	2	4	270	0.00	29.959 
05:55	13.8	13.8	13.8	83	9.6	1	5	248	0.00	29.959 
06:00	13.8	13.8	13.8	79	8.5	2	4	248	0.00	29.961 
06:05	13.8	13.8	13.8	79	8.5	1	3	270	0.00	29.963 
06:10	13.8	13.8	13.8	79	8.5	1	3	248	0.00	29.965 
06:15	13.8	13.8	13.8	79	8.5	1	3	248	0.00	29.968 
06:20	13.8	13.8	13.8	79	8.5	1	3	248	0.00	29.969 
06:25	13.8	13.8	13.8	79	8.5	1	2	248	0.00	29.971 
06:30	14.0	14.0	14.0	80	9.0	1	2	270	0.00	29.968 
06:35	14.0	14.0	14.0	80	9.0	1	2	248	0.00	29.970 
06:40	14.1	14.1	14.1	80	9.1	1	4	248	0.00	29.971 
06:45	14.1	14.1	14.1	80	9.1	0	2	270	0.00	29.972 
06:50	14.3	14.3	14.3	81	9.6	1	3	248	0.00	29.973 
06:55	14.3	14.3	14.3	81	9.6	1	5	270	0.00	29.974 
07:00	14.3	14.3	14.3	81	9.6	1	3	248	0.00	29.974 
07:05	14.3	14.3	14.3	80	9.3	2	4	248	0.00	29.974 
07:10	14.4	14.4	14.4	80	9.4	2	5	248	0.00	29.973 
07:15	14.3	14.3	14.3	79	9.0	2	4	248	0.00	29.975 
07:20	14.4	14.4	14.4	79	9.1	2	5	270	0.00	29.975 
07:25	14.4	14.4	14.4	79	9.1	1	4	248	0.00	29.976 
07:30	14.6	14.6	14.6	79	9.3	1	3	248	0.00	29.977 
07:35	14.6	14.6	14.6	79	9.3	1	3	270	0.00	29.980 
07:40	14.8	14.8	14.8	79	9.5	1	2	270	0.00	29.987 
07:45	14.8	14.8	14.8	79	9.5	1	3	248	0.00	29.990 
07:50	14.9	14.9	14.9	79	9.6	1	4	248	0.00	29.993 
07:55	14.9	14.9	14.9	78	9.3	1	3	248	0.00	29.993 
08:00	14.9	14.9	14.9	78	9.3	1	4	248	0.00	29.996 
08:05	14.8	14.8	14.8	78	9.2	1	3	248	0.00	29.997 
08:10	14.8	14.8	14.8	78	9.2	1	2	270	0.00	30.000 
08:15	14.9	14.9	14.9	78	9.3	1	2	270	0.00	30.005 
08:20	15.1	15.1	15.1	77	9.2	0	1	270	0.00	30.006 
08:25	15.2	15.2	15.2	77	9.3	1	2	270	0.00	30.007 
08:30	15.6	15.6	15.6	76	9.4	1	4	248	0.00	30.011 
08:35	15.7	15.7	15.7	75	9.2	1	3	248	0.00	30.015 
08:40	15.7	15.7	15.7	75	9.2	2	5	248	0.00	30.018 
08:45	15.9	15.9	15.9	74	9.1	2	4	270	0.00	30.021 
08:50	16.2	16.2	16.2	74	9.4	2	7	270	0.00	30.022 
08:55	16.7	16.7	16.7	73	9.6	2	4	270	0.00	30.023 
09:00	16.7	16.7	16.7	73	9.6	3	5	270	0.00	30.023 
09:05	16.5	16.5	16.5	73	9.4	2	4	270	0.00	30.027 
09:10	16.4	16.4	16.4	72	9.0	1	4	270	0.00	30.031 
09:15	16.7	16.7	16.7	72	9.3	2	4	248	0.00	30.033 
09:20	17.2	17.2	17.2	71	9.4	2	6	270	0.00	30.033 
09:25	17.5	17.5	17.5	70	9.4	2	6	270	0.00	30.034 
09:30	17.8	17.8	17.8	69	9.4	2	3	270	0.00	30.034 
09:35	18.1	18.1	18.1	69	9.7	3	6	270	0.00	30.035 
09:40	18.4	18.4	18.4	68	9.6	2	5	248	0.00	30.035 
09:45	18.6	18.6	18.6	67	9.5	2	7	270	0.00	30.034 
09:50	18.9	18.9	18.9	67	9.8	2	6	270	0.00	30.034 
09:55	19.1	19.1	19.1	66	9.6	2	6	270	0.00	30.034 
10:00	19.1	19.1	19.1	65	9.3	2	5	248	0.00	30.036 
10:05	19.4	19.4	19.4	65	9.6	3	5	248	0.00	30.036 
10:10	19.7	19.7	19.7	65	9.9	2	6	270	0.00	30.037 
10:15	20.3	20.3	20.3	65	10.4	2	7	270	0.00	30.045 
10:20	20.8	20.8	20.8	63	10.2	3	6	270	0.00	30.042 
10:25	21.3	21.3	21.3	63	10.7	2	5	270	0.00	30.043 
10:30	21.4	21.4	21.4	62	10.4	2	6	270	0.00	30.044 
10:35	21.6	21.6	21.6	61	10.3	3	5	270	0.00	30.045 
10:40	21.8	21.8	21.8	61	10.4	3	9	248	0.00	30.046 
10:45	22.2	22.2	22.2	61	10.8	2	4	270	0.00	30.045 
10:50	22.2	22.2	22.2	60	10.5	3	11	270	0.00	30.045 
10:55	22.4	22.4	22.4	60	10.6	2	3	270	0.00	30.047 
11:00	22.5	22.5	22.5	59	10.4	3	6	270	0.00	30.046 
11:05	22.5	22.5	22.5	59	10.4	3	6	270	0.00	30.048 
11:10	22.9	22.9	22.9	60	11.1	2	6	270	0.00	30.048 
11:15	22.9	22.9	22.9	60	11.1	3	6	270	0.00	30.048 
11:20	23.2	23.2	23.2	61	11.8	2	5	270	0.00	30.050 
11:25	23.5	23.5	23.5	60	11.7	2	5	292	0.00	30.052 
11:30	23.6	23.6	23.6	60	11.8	2	5	270	0.00	30.051 
11:35	23.5	23.5	23.5	60	11.7	3	10	270	0.00	30.054 
11:40	23.3	23.3	23.3	60	11.5	3	9	292	0.00	30.056 
11:45	23.6	23.6	23.6	61	12.2	3	11	270	0.00	30.056 
11:50	23.9	23.9	23.9	62	12.8	3	7	270	0.00	30.056 
11:55	24.1	24.1	24.1	62	13.0	3	10	270	0.00	30.058 
12:00	23.6	23.6	23.6	61	12.2	3	9	270	0.00	30.058 
12:05	24.1	24.1	24.1	61	12.6	3	5	270	0.00	30.056 
12:10	24.2	24.2	24.2	60	12.3	3	7	270	0.00	30.059 
12:15	24.2	24.2	24.2	58	11.6	3	10	270	0.00	30.061 
12:20	24.5	24.5	24.5	57	11.5	2	6	270	0.00	30.061 
12:25	24.7	24.7	24.7	58	12.1	3	6	270	0.00	30.060 
12:30	24.7	19.6	24.7	57	11.7	4	9	270	0.00	30.061 
12:35	24.7	24.7	24.7	58	12.1	3	9	315	0.00	30.061 
12:40	24.5	24.5	24.5	56	11.1	3	7	270	0.00	30.061 
12:45	24.5	19.4	24.5	57	11.5	4	12	292	0.00	30.059 
12:50	25.0	25.0	25.0	57	11.9	3	10	270	0.00	30.057 
12:55	25.3	25.3	25.3	57	12.2	3	9	292	0.00	30.059 
13:00	25.0	25.0	25.0	58	12.3	3	6	270	0.00	30.062 
13:05	24.4	24.4	24.4	62	13.3	3	6	292	0.00	30.061 
13:10	23.9	23.9	23.9	63	13.2	2	4	315	0.00	30.064 
13:15	23.9	23.9	23.9	62	12.8	1	5	338	0.00	30.060 
13:20	23.9	23.9	23.9	57	10.9	2	8	315	0.00	30.061 
13:25	24.5	24.5	24.5	55	10.7	2	7	292	0.00	30.058 
13:30	25.3	25.3	25.3	51	9.7	3	7	270	0.00	30.057 
13:35	25.4	25.4	25.4	48	8.5	3	7	315	0.00	30.059 
13:40	24.4	19.3	24.4	46	6.6	4	11	292	0.00	30.062 
13:45	24.7	19.6	24.7	51	9.2	4	7	270	0.00	30.062 
13:50	25.4	20.5	25.4	48	8.5	4	8	270	0.00	30.061 
13:55	26.0	26.0	26.0	47	8.6	3	6	270	0.00	30.060 
14:00	25.8	20.9	25.8	45	7.4	4	10	270	0.00	30.060 
14:05	25.3	25.3	25.3	46	7.4	2	10	292	0.00	30.060 
14:10	24.5	24.5	24.5	44	5.7	3	9	315	0.00	30.063 
14:15	24.2	24.2	24.2	47	6.9	3	7	315	0.00	30.066 
14:20	24.4	24.4	24.4	47	7.1	2	4	338	0.00	30.066 
14:25	25.0	20.0	25.0	48	8.1	4	7	292	0.00	30.066 
14:30	25.3	25.3	25.3	46	7.4	3	6	270	0.00	30.066 
14:35	25.7	25.7	25.7	46	7.8	3	7	292	0.00	30.069 
14:40	25.4	25.4	25.4	46	7.5	3	7	270	0.00	30.071 
14:45	24.7	24.7	24.7	46	6.9	3	10	270	0.00	30.072 
14:50	24.7	24.7	24.7	47	7.4	2	7	315	0.00	30.074 
14:55	24.8	24.8	24.8	48	7.9	2	7	315	0.00	30.067 
15:00	25.3	25.3	25.3	48	8.4	2	5	315	0.00	30.067 
15:05	25.1	25.1	25.1	49	8.7	1	5	292	0.00	30.070 
15:10	24.8	24.8	24.8	49	8.4	2	6	292	0.00	30.074 
15:15	24.8	24.8	24.8	48	7.9	2	4	315	0.00	30.073 
15:20	24.4	24.4	24.4	46	6.6	3	7	315	0.00	30.076 
15:25	24.7	24.7	24.7	46	6.9	2	6	270	0.00	30.080 
15:30	24.8	24.8	24.8	46	7.0	3	9	315	0.00	30.078 
15:35	25.0	25.0	25.0	48	8.1	3	4	315	0.00	30.083 
15:40	25.6	25.6	25.6	47	8.2	2	9	338	0.00	30.086 
15:45	25.1	20.1	25.1	47	7.7	4	10	315	0.00	30.085 
15:50	24.5	24.5	24.5	47	7.2	3	7	315	0.00	30.087 
15:55	24.5	24.5	24.5	49	8.1	2	9	315	0.00	30.088 
16:00	24.8	24.8	24.8	46	7.0	3	7	292	0.00	30.089 
16:05	25.0	25.0	25.0	46	7.2	2	7	338	0.00	30.093 
16:10	25.1	25.1	25.1	46	7.3	2	9	338	0.00	30.093 
16:15	25.0	25.0	25.0	48	8.1	3	7	315	0.00	30.095 
16:20	25.0	25.0	25.0	48	8.1	3	10	270	0.00	30.090 
16:25	24.7	24.7	24.7	46	6.9	3	7	270	0.00	30.089 
16:30	24.5	24.5	24.5	48	7.7	2	6	292	0.00	30.098 
16:35	23.6	23.6	23.6	49	7.3	2	6	292	0.00	30.096 
16:40	23.2	23.2	23.2	50	7.4	1	5	338	0.00	30.101 
16:45	23.2	23.2	23.2	49	6.9	2	4	315	0.00	30.102 
16:50	23.2	23.2	23.2	49	6.9	2	11	292	0.00	30.106 
16:55	23.3	23.3	23.3	48	6.5	2	5	292	0.00	30.106 
17:00	23.2	23.2	23.2	47	6.0	2	9	315	0.00	30.111 
17:05	23.2	23.2	23.2	47	6.0	2	6	270	0.00	30.114 
17:10	23.0	23.0	23.0	46	5.3	2	6	270	0.00	30.114 
17:15	23.0	23.0	23.0	48	6.3	2	5	292	0.00	30.118 
17:20	22.7	22.7	22.7	48	6.0	3	9	270	0.00	30.119 
17:25	22.7	22.7	22.7	48	6.0	3	7	270	0.00	30.120 
17:30	22.5	22.5	22.5	49	6.3	2	6	292	0.00	30.123 
17:35	22.2	22.2	22.2	49	6.0	3	7	270	0.00	30.122 
17:40	22.2	22.2	22.2	49	6.0	3	7	270	0.00	30.122 
17:45	21.9	21.9	21.9	50	6.1	2	6	338	0.00	30.122 
17:50	21.6	21.6	21.6	51	6.3	1	4	292	0.00	30.122 
17:55	21.3	21.3	21.3	51	6.0	1	3	270	0.00	30.124 
18:00	21.1	21.1	21.1	53	6.7	1	3	292	0.00	30.127 
18:05	21.0	21.0	21.0	53	6.6	1	4	270	0.00	30.132 
18:10	20.6	20.6	20.6	54	6.6	1	4	270	0.00	30.136 
18:15	20.5	20.5	20.5	54	6.5	1	4	270	0.00	30.139 
18:20	20.2	20.2	20.2	55	6.7	1	3	270	0.00	30.139 
18:25	20.0	20.0	20.0	56	6.9	1	4	292	0.00	30.138 
18:30	19.7	19.7	19.7	56	6.6	1	4	315	0.00	30.139 
18:35	19.5	19.5	19.5	57	6.8	1	3	270	0.00	30.139 
18:40	19.4	19.4	19.4	58	7.1	1	3	270	0.00	30.139 
18:45	19.2	19.2	19.2	58	6.9	1	3	270	0.00	30.141 
18:50	18.9	18.9	18.9	59	7.0	0	1	270	0.00	30.148 
18:55	18.8	18.8	18.8	59	6.9	0	3	248	0.00	30.149 
19:00	18.6	18.6	18.6	59	6.7	0	1	248	0.00	30.151 
19:05	18.4	18.4	18.4	60	6.9	0	2	248	0.00	30.150 
19:10	18.3	18.3	18.3	60	6.8	0	2	248	0.00	30.151 
19:15	18.0	18.0	18.0	61	6.9	0	1	248	0.00	30.154 
19:20	17.8	17.8	17.8	62	7.0	0	1	248	0.00	30.159 
19:25	17.7	17.7	17.7	62	6.9	0	1	248	0.00	30.163 
19:30	17.3	17.3	17.3	63	6.9	0	1	248	0.00	30.166 
19:35	17.0	17.0	17.0	63	6.6	0	0	---	0.00	30.165 
19:40	16.7	16.7	16.7	64	6.7	0	1	248	0.00	30.163 
19:45	16.5	16.5	16.5	65	6.8	0	0	---	0.00	30.157 
19:50	16.4	16.4	16.4	65	6.7	0	1	248	0.00	30.158 
19:55	16.2	16.2	16.2	65	6.5	0	1	248	0.00	30.169 
20:00	15.9	15.9	15.9	66	6.6	0	1	248	0.00	30.171 
20:05	15.7	15.7	15.7	66	6.4	0	0	---	0.00	30.169 
20:10	15.4	15.4	15.4	66	6.1	0	0	---	0.00	30.170 
20:15	15.4	15.4	15.4	66	6.1	0	1	248	0.00	30.170 
20:20	15.2	15.2	15.2	66	5.9	0	1	248	0.00	30.173 
20:25	15.1	15.1	15.1	66	5.8	0	1	248	0.00	30.173 
20:30	14.9	14.9	14.9	66	5.6	0	0	---	0.00	30.171 
20:35	14.6	14.6	14.6	67	5.7	0	0	---	0.00	30.171 
20:40	14.4	14.4	14.4	67	5.5	0	1	248	0.00	30.173 
20:45	14.3	14.3	14.3	67	5.4	0	1	248	0.00	30.177 
20:50	14.3	14.3	14.3	67	5.4	0	0	---	0.00	30.180 
20:55	14.1	14.1	14.1	68	5.5	0	1	248	0.00	30.185 
21:00	14.1	14.1	14.1	68	5.5	0	1	248	0.00	30.183 
21:05	14.1	14.1	14.1	68	5.5	0	1	248	0.00	30.176 
21:10	14.1	14.1	14.1	68	5.5	0	2	248	0.00	30.176 
21:15	14.1	14.1	14.1	68	5.5	0	2	248	0.00	30.174 
21:20	14.3	14.3	14.3	67	5.4	0	2	248	0.00	30.172 
21:25	14.1	14.1	14.1	67	5.2	0	1	248	0.00	30.174 
21:30	14.0	14.0	14.0	67	5.1	0	1	248	0.00	30.170 
21:35	13.5	13.5	13.5	67	4.6	0	0	---	0.00	30.168 
21:40	13.1	13.1	13.1	68	4.6	0	0	---	0.00	30.171 
21:45	13.1	13.1	13.1	69	4.9	0	2	248	0.00	30.171 
21:50	13.3	13.3	13.3	69	5.1	0	2	248	0.00	30.170 
21:55	13.1	13.1	13.1	69	4.9	0	0	---	0.00	30.160 
22:00	12.9	12.9	12.9	69	4.7	0	2	248	0.00	30.167 
22:05	13.3	13.3	13.3	68	4.7	0	2	248	0.00	30.163 
22:10	13.5	13.5	13.5	67	4.6	1	3	248	0.00	30.163 
22:15	13.6	13.6	13.6	66	4.4	1	3	248	0.00	30.165 
22:20	13.8	13.8	13.8	66	4.6	0	2	248	0.00	30.165 
22:25	13.8	13.8	13.8	66	4.6	1	4	248	0.00	30.164 
22:30	13.6	13.6	13.6	66	4.4	0	2	248	0.00	30.164 
22:35	13.8	13.8	13.8	67	4.9	1	4	248	0.00	30.165 
22:40	13.6	13.6	13.6	67	4.7	0	1	248	0.00	30.163 
22:45	13.5	13.5	13.5	67	4.6	0	1	248	0.00	30.162 
22:50	13.3	13.3	13.3	68	4.7	0	2	248	0.00	30.163 
22:55	13.1	13.1	13.1	68	4.6	0	2	248	0.00	30.164 
23:00	12.8	12.8	12.8	69	4.6	0	1	248	0.00	30.166 
23:05	12.6	12.6	12.6	69	4.4	0	2	248	0.00	30.167 
23:10	12.6	12.6	12.6	70	4.7	1	4	248	0.00	30.170 
23:15	12.6	12.6	12.6	70	4.7	1	3	248	0.00	30.169 
23:20	12.8	12.8	12.8	70	4.9	1	4	248	0.00	30.167 
23:25	12.8	12.8	12.8	69	4.6	0	3	248	0.00	30.173 
23:30	12.8	12.8	12.8	70	4.9	1	3	248	0.00	30.168 
23:35	12.6	12.6	12.6	69	4.4	0	2	248	0.00	30.166 
23:40	12.4	12.4	12.4	70	4.5	0	2	248	0.00	30.167 
23:45	12.3	12.3	12.3	70	4.4	0	1	248	0.00	30.167 
23:50	12.1	12.1	12.1	71	4.5	0	1	248	0.00	30.168 
23:55	11.9	11.9	11.9	71	4.3	0	0	---	0.00	30.166 

CoCoRaHS
IN-AL-39
A2 Web Hosting
Creative Commons License
GoDaddy
Look for:

loaded 2017-12-13 02:33:23 • last modified 2010-11-18 10:43:29
Privacy PolicyDisclaimer
• wx.awcolley.com is powered by PmWiki v.2002016 •
• all content (unless otherwise noted) © 2017 A W Colley